createdAt,value
2023-01-02T00:00:08.211Z,564.8
2023-01-02T00:01:10.830Z,565.2
2023-01-02T00:02:13.100Z,565.2
2023-01-02T00:03:16.159Z,565.2
2023-01-02T00:04:18.731Z,565.1
2023-01-02T00:05:20.969Z,564.6
2023-01-02T00:06:23.184Z,564.1
2023-01-02T00:07:25.706Z,564.3
2023-01-02T00:08:27.942Z,564.3
2023-01-02T00:09:30.164Z,563.9
2023-01-02T00:10:32.693Z,564.4
2023-01-02T00:11:34.661Z,564.4
2023-01-02T00:12:37.272Z,565
2023-01-02T00:13:39.624Z,565.1
2023-01-02T00:14:42.145Z,564.9
2023-01-02T00:15:44.775Z,564.5
2023-01-02T00:16:47.313Z,564.9
2023-01-02T00:17:49.267Z,564.8
2023-01-02T00:18:51.790Z,565.4
2023-01-02T00:19:54.008Z,564.9
2023-01-02T00:20:56.524Z,565
2023-01-02T00:21:59.030Z,564.9
2023-01-02T00:23:01.283Z,565.2
2023-01-02T00:24:03.826Z,564.8
2023-01-02T00:25:06.382Z,564.4
2023-01-02T00:26:08.906Z,564.6
2023-01-02T00:27:11.414Z,564.5
2023-01-02T00:28:14.029Z,564.7
2023-01-02T00:29:16.569Z,564.7
2023-01-02T00:30:19.111Z,565.2
2023-01-02T00:31:21.628Z,565
2023-01-02T00:32:23.878Z,565
2023-01-02T00:33:26.117Z,565.6
2023-01-02T00:34:28.659Z,566.1
2023-01-02T00:35:31.180Z,565.9
2023-01-02T00:36:33.149Z,565.6
2023-01-02T00:37:35.406Z,565.8
2023-01-02T00:39:42.878Z,565
2023-01-02T00:40:45.113Z,565.2
2023-01-02T00:41:47.643Z,565.8
2023-01-02T00:42:50.180Z,566.2
2023-01-02T00:43:52.911Z,566.2
2023-01-02T00:44:55.185Z,566.2
2023-01-02T00:45:57.709Z,565.4
2023-01-02T00:47:00.273Z,565.9
2023-01-02T00:48:02.926Z,566.7
2023-01-02T00:49:05.458Z,567
2023-01-02T00:50:07.973Z,566.8
2023-01-02T00:51:10.615Z,566.6
2023-01-02T00:52:13.132Z,567
2023-01-02T00:53:15.347Z,566.7
2023-01-02T00:54:17.859Z,567.1
2023-01-02T00:55:20.426Z,566.6
2023-01-02T00:56:22.943Z,567
2023-01-02T00:57:25.222Z,566.9
2023-01-02T00:58:27.721Z,567
2023-01-02T00:59:30.431Z,567.1
2023-01-02T01:00:33.024Z,567
2023-01-02T01:01:37.273Z,567.2
2023-01-02T01:02:40.521Z,567.4
2023-01-02T01:03:42.806Z,567.5
2023-01-02T01:04:45.352Z,567.3
2023-01-02T01:05:47.903Z,567.5
2023-01-02T01:06:50.436Z,567.5
2023-01-02T01:07:53.007Z,567.4
2023-01-02T01:08:55.213Z,567.4
2023-01-02T01:09:57.449Z,567.2
2023-01-02T01:10:59.975Z,566.9
2023-01-02T01:13:07.501Z,566.5
2023-01-02T01:14:09.733Z,565.5
2023-01-02T01:15:12.349Z,565.8
2023-01-02T01:16:15.010Z,566.4
2023-01-02T01:17:16.947Z,566.5
2023-01-02T01:18:19.483Z,566.4
2023-01-02T01:19:21.701Z,566.4
2023-01-02T01:20:24.243Z,566.9
2023-01-02T01:21:26.745Z,567.2
2023-01-02T01:22:29.319Z,567.2
2023-01-02T01:23:46.480Z,567.2
2023-01-02T01:24:48.726Z,567.1
2023-01-02T01:25:51.231Z,566.9
2023-01-02T01:26:53.760Z,566.9
2023-01-02T01:27:56.323Z,566.6
2023-01-02T01:28:58.264Z,566.2
2023-01-02T01:30:00.811Z,566.6
2023-01-02T01:31:03.197Z,566.8
2023-01-02T01:32:06.737Z,566.9
2023-01-02T01:33:09.257Z,566.7
2023-01-02T01:34:11.742Z,567
2023-01-02T01:35:14.339Z,567
2023-01-02T01:36:16.617Z,567.1
2023-01-02T01:37:18.813Z,567.3
2023-01-02T01:38:21.322Z,567.5
2023-01-02T01:39:23.519Z,567.8
2023-01-02T01:40:26.037Z,568
2023-01-02T01:41:28.549Z,567.5
2023-01-02T01:42:30.495Z,568.2
2023-01-02T01:43:32.703Z,568.3
2023-01-02T01:44:34.921Z,568.7
2023-01-02T01:45:37.693Z,568.7
2023-01-02T01:46:40.050Z,568.4
2023-01-02T01:47:42.591Z,568.3
2023-01-02T01:48:45.105Z,568.1
2023-01-02T01:49:47.588Z,568.1
2023-01-02T01:50:50.107Z,568.1
2023-01-02T01:51:52.081Z,568.1
2023-01-02T01:52:54.336Z,567.6
2023-01-02T01:53:56.839Z,567.7
2023-01-02T01:54:59.400Z,567.2
2023-01-02T01:56:01.629Z,567.3
2023-01-02T01:57:03.629Z,567.3
2023-01-02T01:58:06.165Z,567.2
2023-01-02T01:59:08.912Z,567.3
2023-01-02T02:00:11.546Z,567.1
2023-01-02T02:01:14.368Z,566.8
2023-01-02T02:02:18.543Z,566.5
2023-01-02T02:03:21.462Z,566.1
2023-01-02T02:04:24.014Z,566.1
2023-01-02T02:05:26.548Z,565.6
2023-01-02T02:06:29.048Z,565.6
2023-01-02T02:07:31.538Z,565.8
2023-01-02T02:08:33.492Z,566.1
2023-01-02T02:09:35.721Z,566.6
2023-01-02T02:10:38.229Z,566.6
2023-01-02T02:11:40.721Z,566.7
2023-01-02T02:12:42.953Z,566.5
2023-01-02T02:13:45.472Z,566.4
2023-01-02T02:14:47.703Z,566.9
2023-01-02T02:15:49.934Z,566.6
2023-01-02T02:16:52.524Z,566.8
2023-01-02T02:17:54.876Z,567.3
2023-01-02T02:18:57.426Z,567.2
2023-01-02T02:19:59.680Z,566.9
2023-01-02T02:21:02.229Z,566.7
2023-01-02T02:22:04.741Z,566.9
2023-01-02T02:23:06.956Z,567.1
2023-01-02T02:24:09.455Z,567.2
2023-01-02T02:25:11.967Z,567.3
2023-01-02T02:26:14.477Z,566.8
2023-01-02T02:27:16.974Z,566.9
2023-01-02T02:28:19.170Z,566.9
2023-01-02T02:29:21.134Z,566.9
2023-01-02T02:30:23.698Z,567.4
2023-01-02T02:31:26.543Z,567.6
2023-01-02T02:32:29.116Z,567.6
2023-01-02T02:33:31.738Z,567.6
2023-01-02T02:34:34.341Z,567.3
2023-01-02T02:35:36.876Z,567.3
2023-01-02T02:36:39.112Z,567.2
2023-01-02T02:37:41.614Z,567.5
2023-01-02T02:38:44.120Z,567.5
2023-01-02T02:39:46.638Z,568.3
2023-01-02T02:40:49.151Z,568.7
2023-01-02T02:41:51.681Z,568.4
2023-01-02T02:42:54.211Z,568.9
2023-01-02T02:43:56.461Z,568.7
2023-01-02T02:44:58.976Z,568.5
2023-01-02T02:46:01.843Z,568.2
2023-01-02T02:47:04.121Z,568
2023-01-02T02:48:06.370Z,568
2023-01-02T02:49:09.018Z,568.6
2023-01-02T02:50:11.588Z,569.3
2023-01-02T02:51:14.135Z,568.9
2023-01-02T02:52:16.627Z,569.3
2023-01-02T02:53:19.119Z,569.2
2023-01-02T02:54:21.370Z,569.4
2023-01-02T02:55:23.891Z,569.8
2023-01-02T02:56:26.423Z,570
2023-01-02T02:57:28.372Z,570
2023-01-02T02:58:30.919Z,570.3
2023-01-02T02:59:33.451Z,569.8
2023-01-02T03:00:35.697Z,569.8
2023-01-02T03:01:38.681Z,570.6
2023-01-02T03:02:42.037Z,571
2023-01-02T03:03:44.605Z,570.8
2023-01-02T03:04:47.611Z,571.2
2023-01-02T03:05:50.132Z,571.1
2023-01-02T03:06:52.651Z,571.1
2023-01-02T03:07:54.895Z,571
2023-01-02T03:08:56.834Z,571.4
2023-01-02T03:09:58.826Z,571.5
2023-01-02T03:11:01.386Z,571.4
2023-01-02T03:12:03.938Z,571.7
2023-01-02T03:13:06.479Z,571.7
2023-01-02T03:14:08.703Z,571.7
2023-01-02T03:15:11.222Z,571.8
2023-01-02T03:16:14.144Z,572.4
2023-01-02T03:17:16.388Z,572
2023-01-02T03:18:18.900Z,572
2023-01-02T03:19:21.398Z,572.4
2023-01-02T03:20:24.036Z,572.3
2023-01-02T03:22:31.542Z,572.5
2023-01-02T03:23:34.068Z,573
2023-01-02T03:24:36.575Z,572.7
2023-01-02T03:25:38.819Z,572.7
2023-01-02T03:26:41.389Z,573.1
2023-01-02T03:27:43.883Z,573.1
2023-01-02T03:28:46.436Z,573.3
2023-01-02T03:29:48.737Z,573.8
2023-01-02T03:30:51.563Z,573.7
2023-01-02T03:31:54.076Z,573.8
2023-01-02T03:32:56.591Z,573.7
2023-01-02T03:33:59.143Z,573.6
2023-01-02T03:35:01.125Z,573.8
2023-01-02T03:36:03.749Z,573.4
2023-01-02T03:37:06.287Z,574
2023-01-02T03:38:08.555Z,573.3
2023-01-02T03:39:11.063Z,573.6
2023-01-02T03:40:13.563Z,573.3
2023-01-02T03:41:15.795Z,573.9
2023-01-02T03:42:18.004Z,574.3
2023-01-02T03:43:20.537Z,574.1
2023-01-02T03:44:23.053Z,574.1
2023-01-02T03:45:25.595Z,573.9
2023-01-02T03:46:28.356Z,574
2023-01-02T03:47:30.878Z,574.4
2023-01-02T03:48:33.127Z,574.1
2023-01-02T03:49:35.642Z,574.1
2023-01-02T03:50:38.154Z,574.7
2023-01-02T03:51:40.755Z,574.5
2023-01-02T03:52:43.287Z,574.9
2023-01-02T03:53:45.525Z,574.8
2023-01-02T03:54:47.469Z,575.2
2023-01-02T03:55:49.992Z,574.7
2023-01-02T03:56:52.518Z,574.7
2023-01-02T03:58:59.754Z,574.4
2023-01-02T04:00:01.750Z,574.7
2023-01-02T04:01:04.628Z,574.8
2023-01-02T04:02:07.815Z,574.6
2023-01-02T04:03:10.536Z,574.9
2023-01-02T04:04:12.782Z,574.6
2023-01-02T04:05:15.085Z,574.7
2023-01-02T04:06:17.317Z,574.8
2023-01-02T04:07:19.913Z,575
2023-01-02T04:08:22.448Z,574.6
2023-01-02T04:09:24.409Z,574.4
2023-01-02T04:10:27.008Z,574.6
2023-01-02T04:11:29.505Z,574.2
2023-01-02T04:12:31.446Z,574.8
2023-01-02T04:13:33.686Z,574.6
2023-01-02T04:14:35.936Z,574.6
2023-01-02T04:15:38.704Z,574.5
2023-01-02T04:16:41.202Z,574
2023-01-02T04:17:43.191Z,573.9
2023-01-02T04:19:50.650Z,573.7
2023-01-02T04:20:52.909Z,573.7
2023-01-02T04:21:55.160Z,574
2023-01-02T04:22:57.764Z,573.9
2023-01-02T04:24:00.267Z,573.6
2023-01-02T04:25:02.787Z,573.7
2023-01-02T04:26:04.802Z,574.1
2023-01-02T04:27:06.764Z,574.6
2023-01-02T04:28:09.037Z,574.1
2023-01-02T04:29:11.336Z,574.1
2023-01-02T04:30:13.572Z,573.9
2023-01-02T04:31:16.385Z,573.9
2023-01-02T04:32:18.910Z,573.3
2023-01-02T04:33:21.407Z,573.3
2023-01-02T04:34:23.927Z,573.5
2023-01-02T04:35:25.882Z,573.3
2023-01-02T04:36:27.880Z,573.2
2023-01-02T04:37:30.385Z,572.6
2023-01-02T04:38:33.025Z,573
2023-01-02T04:39:35.383Z,573.2
2023-01-02T04:40:37.596Z,573.1
2023-01-02T04:41:40.083Z,573.4
2023-01-02T04:42:42.338Z,573
2023-01-02T04:43:44.930Z,573.3
2023-01-02T04:44:47.471Z,573.1
2023-01-02T04:45:50.001Z,573.4
2023-01-02T04:46:52.518Z,573.1
2023-01-02T04:47:55.038Z,573.6
2023-01-02T04:48:57.570Z,573.8
2023-01-02T04:50:00.124Z,573.4
2023-01-02T04:51:02.401Z,573.7
2023-01-02T04:52:04.349Z,573.8
2023-01-02T04:53:06.638Z,573.4
2023-01-02T04:54:09.338Z,573.4
2023-01-02T04:55:11.706Z,573.1
2023-01-02T04:56:13.951Z,573.7
2023-01-02T04:57:16.226Z,573.7
2023-01-02T04:58:18.739Z,573.3
2023-01-02T04:59:21.227Z,573.8
2023-01-02T05:00:23.739Z,573.8
2023-01-02T05:01:27.066Z,573.6
2023-01-02T05:02:30.214Z,573.4
2023-01-02T05:03:33.080Z,573.1
2023-01-02T05:04:35.697Z,573.2
2023-01-02T05:05:38.227Z,573.2
2023-01-02T05:06:40.729Z,573.2
2023-01-02T05:07:42.741Z,572.8
2023-01-02T05:08:44.988Z,572.8
2023-01-02T05:09:47.443Z,573
2023-01-02T05:10:50.031Z,573
2023-01-02T05:11:52.550Z,573
2023-01-02T05:12:55.051Z,572.8
2023-01-02T05:15:04.035Z,572.6
2023-01-02T05:16:06.983Z,572.3
2023-01-02T05:17:08.987Z,572.6
2023-01-02T05:18:11.536Z,572.6
2023-01-02T05:19:13.754Z,572.9
2023-01-02T05:20:15.465Z,573.3
2023-01-02T05:21:17.688Z,573.6
2023-01-02T05:22:20.194Z,573.6
2023-01-02T05:23:22.718Z,573.5
2023-01-02T05:24:25.218Z,572.9
2023-01-02T05:25:28.219Z,573
2023-01-02T05:26:30.603Z,573
2023-01-02T05:27:33.120Z,573.2
2023-01-02T05:29:40.599Z,573.1
2023-01-02T05:30:43.125Z,573
2023-01-02T05:31:45.844Z,572.9
2023-01-02T05:32:48.368Z,572.7
2023-01-02T05:33:50.999Z,573
2023-01-02T05:34:53.500Z,573.2
2023-01-02T05:35:55.992Z,572.9
2023-01-02T05:36:58.504Z,573.3
2023-01-02T05:38:01.081Z,573
2023-01-02T05:39:03.669Z,573.3
2023-01-02T05:40:05.923Z,573.2
2023-01-02T05:41:08.359Z,573.3
2023-01-02T05:42:10.882Z,573.4
2023-01-02T05:43:13.133Z,573.6
2023-01-02T05:44:15.387Z,573.4
2023-01-02T05:45:17.911Z,573.8
2023-01-02T05:46:20.587Z,573.2
2023-01-02T05:47:23.099Z,573.4
2023-01-02T05:48:25.591Z,573
2023-01-02T05:49:28.097Z,572.8
2023-01-02T05:50:30.348Z,572.5
2023-01-02T05:51:32.847Z,572.3
2023-01-02T05:53:41.835Z,572.7
2023-01-02T05:54:44.089Z,571.7
2023-01-02T05:55:46.593Z,571.7
2023-01-02T05:56:48.924Z,570.9
2023-01-02T05:57:51.548Z,570.3
2023-01-02T05:58:53.768Z,569.8
2023-01-02T05:59:56.274Z,569.7
2023-01-02T06:00:58.493Z,569.7
2023-01-02T06:02:01.890Z,569.9
2023-01-02T06:03:05.328Z,569.9
2023-01-02T06:04:07.339Z,569.1
2023-01-02T06:05:09.293Z,568.6
2023-01-02T06:06:12.022Z,568
2023-01-02T06:07:14.524Z,567.9
2023-01-02T06:08:16.734Z,568.5
2023-01-02T06:09:19.248Z,568.3
2023-01-02T06:10:21.197Z,568.4
2023-01-02T06:11:23.414Z,568.2
2023-01-02T06:12:26.251Z,568.1
2023-01-02T06:13:28.785Z,568.6
2023-01-02T06:14:30.761Z,568.6
2023-01-02T06:15:33.272Z,568.8
2023-01-02T06:16:36.039Z,569.1
2023-01-02T06:17:38.611Z,569.3
2023-01-02T06:18:41.184Z,569.3
2023-01-02T06:20:49.655Z,569.8
2023-01-02T06:21:51.971Z,570
2023-01-02T06:22:54.484Z,569.7
2023-01-02T06:23:57.013Z,570.2
2023-01-02T06:24:59.266Z,569.7
2023-01-02T06:26:01.773Z,569.5
2023-01-02T06:27:03.811Z,570
2023-01-02T06:28:06.446Z,569.7
2023-01-02T06:29:08.804Z,569.6
2023-01-02T06:30:10.906Z,569.7
2023-01-02T06:31:13.741Z,569.8
2023-01-02T06:32:16.416Z,569.9
2023-01-02T06:33:18.672Z,569.6
2023-01-02T06:34:21.205Z,568.8
2023-01-02T06:35:23.434Z,569
2023-01-02T06:36:25.695Z,569.6
2023-01-02T06:37:27.913Z,570
2023-01-02T06:38:30.226Z,569.5
2023-01-02T06:39:32.739Z,570
2023-01-02T06:40:35.314Z,570.1
2023-01-02T06:41:37.558Z,570
2023-01-02T06:42:39.769Z,570.2
2023-01-02T06:43:42.534Z,569.9
2023-01-02T06:44:45.153Z,569.9
2023-01-02T06:45:47.945Z,569.7
2023-01-02T06:46:50.201Z,570.1
2023-01-02T06:47:52.722Z,570.2
2023-01-02T06:48:55.225Z,569.9
2023-01-02T06:49:57.142Z,570.1
2023-01-02T06:50:59.383Z,570.2
2023-01-02T06:52:01.936Z,570.1
2023-01-02T06:53:04.485Z,569.9
2023-01-02T06:54:06.729Z,569.7
2023-01-02T06:55:09.244Z,569.9
2023-01-02T06:56:11.797Z,570.1
2023-01-02T06:57:14.322Z,569.8
2023-01-02T06:59:21.952Z,569.7
2023-01-02T07:00:24.236Z,569.5
2023-01-02T07:01:27.469Z,569.4
2023-01-02T07:02:30.446Z,569.6
2023-01-02T07:03:33.057Z,570
2023-01-02T07:04:35.320Z,569.8
2023-01-02T07:05:37.285Z,569.5
2023-01-02T07:06:39.811Z,569.1
2023-01-02T07:07:42.100Z,569.7
2023-01-02T07:08:43.933Z,569.7
2023-01-02T07:09:46.481Z,570
2023-01-02T07:11:53.970Z,570
2023-01-02T07:12:56.479Z,570.3
2023-01-02T07:13:58.748Z,570.3
2023-01-02T07:15:01.388Z,570.1
2023-01-02T07:16:03.979Z,569.9
2023-01-02T07:17:06.518Z,570
2023-01-02T07:18:08.476Z,570.3
2023-01-02T07:19:11.010Z,570
2023-01-02T07:20:12.413Z,569.6
2023-01-02T07:21:14.958Z,569.9
2023-01-02T07:22:17.193Z,569.5
2023-01-02T07:23:19.133Z,568.7
2023-01-02T07:24:21.380Z,568.7
2023-01-02T07:25:23.606Z,568.3
2023-01-02T07:26:25.841Z,568.3
2023-01-02T07:27:28.398Z,567.9
2023-01-02T07:28:30.647Z,567.2
2023-01-02T07:29:33.168Z,567.6
2023-01-02T07:30:35.533Z,567.7
2023-01-02T07:31:38.094Z,567.7
2023-01-02T07:32:40.075Z,567.8
2023-01-02T07:33:42.667Z,567.6
2023-01-02T07:34:44.934Z,567.5
2023-01-02T07:35:46.892Z,567.4
2023-01-02T07:36:49.394Z,567.9
2023-01-02T07:37:51.661Z,567.9
2023-01-02T07:38:53.931Z,567.9
2023-01-02T07:39:55.881Z,568
2023-01-02T07:40:58.117Z,568.1
2023-01-02T07:42:00.641Z,568.1
2023-01-02T07:43:02.607Z,568.2
2023-01-02T07:44:04.880Z,568.3
2023-01-02T07:45:07.400Z,568.5
2023-01-02T07:46:10.316Z,569
2023-01-02T07:47:12.874Z,568.7
2023-01-02T07:48:15.402Z,569.1
2023-01-02T07:49:17.937Z,569.1
2023-01-02T07:50:20.187Z,569
2023-01-02T07:52:27.675Z,569.3
2023-01-02T07:53:29.924Z,569.6
2023-01-02T07:54:31.918Z,569.4
2023-01-02T07:55:34.483Z,569.2
2023-01-02T07:56:36.193Z,569
2023-01-02T07:57:38.147Z,568.9
2023-01-02T07:58:40.663Z,568.4
2023-01-02T07:59:43.177Z,568.6
2023-01-02T08:00:45.723Z,568.2
2023-01-02T08:01:48.925Z,568.2
2023-01-02T08:02:51.387Z,568.1
2023-01-02T08:03:53.987Z,567.6
2023-01-02T08:04:56.527Z,568.1
2023-01-02T08:05:59.050Z,567.5
2023-01-02T08:07:01.579Z,567.8
2023-01-02T08:08:04.173Z,568
2023-01-02T08:09:06.427Z,567.4
2023-01-02T08:10:08.964Z,567.2
2023-01-02T08:11:11.541Z,566.9
2023-01-02T08:12:13.816Z,566.8
2023-01-02T08:13:16.323Z,566.4
2023-01-02T08:15:23.576Z,566.3
2023-01-02T08:16:25.900Z,566.1
2023-01-02T08:17:28.574Z,566.1
2023-01-02T08:18:31.142Z,566.1
2023-01-02T08:19:33.692Z,566.1
2023-01-02T08:20:36.189Z,566.5
2023-01-02T08:21:38.450Z,566.3
2023-01-02T08:22:40.975Z,566.5
2023-01-02T08:23:43.508Z,566.2
2023-01-02T08:24:46.042Z,567.1
2023-01-02T08:26:54.553Z,566.4
2023-01-02T08:27:57.081Z,566.4
2023-01-02T08:28:59.304Z,566.2
2023-01-02T08:30:01.560Z,566
2023-01-02T08:31:04.408Z,566.3
2023-01-02T08:32:06.939Z,566
2023-01-02T08:33:09.656Z,565.8
2023-01-02T08:34:12.185Z,565.4
2023-01-02T08:35:14.417Z,565.3
2023-01-02T08:36:16.992Z,565.1
2023-01-02T08:37:19.219Z,564.8
2023-01-02T08:38:21.499Z,564.3
2023-01-02T08:39:23.747Z,564.5
2023-01-02T08:40:26.547Z,564.3
2023-01-02T08:41:28.805Z,564.1
2023-01-02T08:42:30.763Z,564.6
2023-01-02T08:43:32.998Z,563.9
2023-01-02T08:44:35.310Z,563.9
2023-01-02T08:45:37.265Z,564
2023-01-02T08:47:44.747Z,564.4
2023-01-02T08:48:47.462Z,564.1
2023-01-02T08:49:49.745Z,564.3
2023-01-02T08:50:51.859Z,563.7
2023-01-02T08:51:54.426Z,563.8
2023-01-02T08:52:56.945Z,563.4
2023-01-02T08:53:59.452Z,563.5
2023-01-02T08:55:01.959Z,563.8
2023-01-02T08:56:04.201Z,564.1
2023-01-02T08:57:06.713Z,564.5
2023-01-02T08:58:09.219Z,564
2023-01-02T08:59:11.725Z,564.3
2023-01-02T09:00:14.253Z,564.5
2023-01-02T09:01:17.562Z,564.2
2023-01-02T09:02:20.846Z,564.4
2023-01-02T09:03:23.786Z,564.4
2023-01-02T09:04:26.449Z,564
2023-01-02T09:05:29.017Z,564.2
2023-01-02T09:06:31.567Z,564.5
2023-01-02T09:07:33.541Z,564.1
2023-01-02T09:08:35.785Z,564.3
2023-01-02T09:09:38.306Z,564.3
2023-01-02T09:10:40.879Z,564.2
2023-01-02T09:11:42.885Z,564.5
2023-01-02T09:12:45.109Z,564.3
2023-01-02T09:13:47.612Z,564.2
2023-01-02T09:14:50.120Z,564
2023-01-02T09:15:52.671Z,564
2023-01-02T09:16:54.989Z,564
2023-01-02T09:17:57.560Z,564.2
2023-01-02T09:18:59.822Z,564.3
2023-01-02T09:20:02.473Z,563.8
2023-01-02T09:21:05.150Z,563.7
2023-01-02T09:22:07.770Z,564.1
2023-01-02T09:23:10.052Z,564
2023-01-02T09:24:12.605Z,563.8
2023-01-02T09:26:21.860Z,564.4
2023-01-02T09:27:24.417Z,564
2023-01-02T09:28:26.642Z,564.3
2023-01-02T09:29:29.161Z,564.1
2023-01-02T09:30:31.683Z,564
2023-01-02T09:31:34.588Z,564.2
2023-01-02T09:32:36.538Z,564
2023-01-02T09:33:38.802Z,563.8
2023-01-02T09:34:40.758Z,563.8
2023-01-02T09:35:43.957Z,563.7
2023-01-02T09:36:46.500Z,563.6
2023-01-02T09:37:48.770Z,564
2023-01-02T09:38:51.037Z,563.9
2023-01-02T09:39:53.569Z,563.6
2023-01-02T09:40:56.144Z,563.6
2023-01-02T09:41:58.657Z,563.8
2023-01-02T09:43:00.665Z,563.8
2023-01-02T09:44:02.947Z,563.9
2023-01-02T09:46:10.624Z,563.7
2023-01-02T09:47:13.197Z,563.6
2023-01-02T09:48:15.744Z,563.4
2023-01-02T09:49:17.990Z,563.7
2023-01-02T09:50:20.472Z,563.7
2023-01-02T09:51:23.185Z,563.5
2023-01-02T09:52:25.710Z,563.5
2023-01-02T09:53:27.660Z,562.8
2023-01-02T09:54:29.969Z,562.6
2023-01-02T09:55:32.251Z,562.2
2023-01-02T09:56:36.259Z,562.1
2023-01-02T09:57:38.762Z,562
2023-01-02T09:58:40.986Z,562.4
2023-01-02T09:59:43.229Z,562.5
2023-01-02T10:00:45.747Z,562.5
2023-01-02T10:01:48.278Z,563.1
2023-01-02T10:02:51.010Z,563.2
2023-01-02T10:03:54.112Z,563.5
2023-01-02T10:04:56.690Z,563.9
2023-01-02T10:05:59.230Z,563.9
2023-01-02T10:07:01.567Z,563.7
2023-01-02T10:08:04.110Z,563.7
2023-01-02T10:09:06.097Z,563.3
2023-01-02T10:10:08.089Z,563.2
2023-01-02T10:11:10.627Z,563.5
2023-01-02T10:12:12.605Z,563.8
2023-01-02T10:13:14.877Z,564
2023-01-02T10:15:22.365Z,564.2
2023-01-02T10:16:24.789Z,565
2023-01-02T10:17:27.344Z,564.8
2023-01-02T10:18:29.875Z,565.6
2023-01-02T10:19:32.135Z,565.8
2023-01-02T10:20:34.657Z,566.2
2023-01-02T10:21:36.934Z,566.1
2023-01-02T10:22:39.567Z,566.1
2023-01-02T10:23:42.111Z,566.2
2023-01-02T10:24:44.359Z,565.7
2023-01-02T10:26:51.601Z,565.4
2023-01-02T10:27:54.165Z,565.8
2023-01-02T10:28:56.402Z,565.7
2023-01-02T10:29:58.652Z,565.4
2023-01-02T10:32:06.305Z,566.4
2023-01-02T10:33:08.957Z,567
2023-01-02T10:34:11.206Z,567.4
2023-01-02T10:35:13.172Z,567.5
2023-01-02T10:36:15.684Z,567.8
2023-01-02T10:37:18.199Z,567.5
2023-01-02T10:38:20.938Z,567.6
2023-01-02T10:39:23.011Z,568.4
2023-01-02T10:40:25.736Z,568.7
2023-01-02T10:41:27.752Z,568.5
2023-01-02T10:42:29.701Z,568.6
2023-01-02T10:43:31.954Z,568.2
2023-01-02T10:44:33.662Z,568.2
2023-01-02T10:45:35.645Z,568.6
2023-01-02T10:46:38.458Z,568.5
2023-01-02T10:47:40.729Z,568.1
2023-01-02T10:49:51.149Z,566.9
2023-01-02T10:50:53.435Z,567.3
2023-01-02T10:51:55.396Z,567.6
2023-01-02T10:52:57.654Z,567.8
2023-01-02T10:53:59.988Z,567.7
2023-01-02T10:55:02.994Z,567.7
2023-01-02T10:56:05.265Z,567.5
2023-01-02T10:57:07.791Z,567.5
2023-01-02T10:58:10.335Z,567
2023-01-02T10:59:12.852Z,566.7
2023-01-02T11:00:15.374Z,567
2023-01-02T11:01:18.549Z,566.8
2023-01-02T11:02:21.776Z,566.8
2023-01-02T11:03:24.068Z,567
2023-01-02T11:04:26.590Z,567.3
2023-01-02T11:05:29.144Z,567.3
2023-01-02T11:07:36.381Z,567.7
2023-01-02T11:08:38.625Z,567.4
2023-01-02T11:09:41.229Z,567.1
2023-01-02T11:10:43.859Z,567.4
2023-01-02T11:11:46.363Z,566.9
2023-01-02T11:12:48.599Z,566.7
2023-01-02T11:14:56.092Z,567.2
2023-01-02T11:15:58.809Z,567.8
2023-01-02T11:17:01.359Z,568.2
2023-01-02T11:18:03.918Z,567.6
2023-01-02T11:19:05.886Z,566.8
2023-01-02T11:20:08.121Z,566.4
2023-01-02T11:21:10.634Z,566.6
2023-01-02T11:22:13.058Z,567.1
2023-01-02T11:23:15.340Z,567.2
2023-01-02T11:24:17.589Z,567.9
2023-01-02T11:25:20.235Z,567.7
2023-01-02T11:26:22.903Z,567.5
2023-01-02T11:27:25.397Z,567.3
2023-01-02T11:28:27.090Z,567.1
2023-01-02T11:29:29.084Z,567.7
2023-01-02T11:30:31.377Z,567.8
2023-01-02T11:31:33.830Z,568
2023-01-02T11:32:36.802Z,567.4
2023-01-02T11:33:39.409Z,567.5
2023-01-02T11:34:41.674Z,567.2
2023-01-02T11:35:43.920Z,567.3
2023-01-02T11:36:46.430Z,567.1
2023-01-02T11:37:48.949Z,567.3
2023-01-02T11:38:51.478Z,567.6
2023-01-02T11:39:53.700Z,567.7
2023-01-02T11:40:56.300Z,567.6
2023-01-02T11:41:58.592Z,567.9
2023-01-02T11:43:01.127Z,567.8
2023-01-02T11:44:03.661Z,567.8
2023-01-02T11:45:06.290Z,568
2023-01-02T11:46:08.900Z,568.1
2023-01-02T11:47:10.894Z,567.9
2023-01-02T11:48:12.569Z,568.1
2023-01-02T11:49:15.112Z,567.9
2023-01-02T11:50:17.472Z,567.9
2023-01-02T11:51:20.027Z,568
2023-01-02T11:52:22.550Z,568
2023-01-02T11:53:24.501Z,568.3
2023-01-02T11:54:26.782Z,567.8
2023-01-02T11:55:29.026Z,567.8
2023-01-02T11:56:31.437Z,567.6
2023-01-02T11:57:33.968Z,567.8
2023-01-02T11:58:36.247Z,567.7
2023-01-02T11:59:38.781Z,567.2
2023-01-02T12:00:41.045Z,567.1
2023-01-02T12:01:43.832Z,566.9
2023-01-02T12:02:47.099Z,566.6
2023-01-02T12:03:50.074Z,566.8
2023-01-02T12:04:52.099Z,566.8
2023-01-02T12:05:54.078Z,567
2023-01-02T12:06:56.594Z,567
2023-01-02T12:07:59.101Z,567.2
2023-01-02T12:09:01.338Z,567.8
2023-01-02T12:10:03.632Z,567.8
2023-01-02T12:11:06.149Z,568
2023-01-02T12:12:08.753Z,567.8
2023-01-02T12:13:11.311Z,568
2023-01-02T12:14:13.546Z,568.1
2023-01-02T12:15:16.067Z,568.3
2023-01-02T12:16:18.720Z,568.2
2023-01-02T12:17:21.273Z,568.1
2023-01-02T12:18:23.831Z,567.9
2023-01-02T12:19:26.073Z,568.1
2023-01-02T12:20:28.340Z,568.2
2023-01-02T12:21:30.846Z,567.3
2023-01-02T12:22:33.368Z,567.1
2023-01-02T12:23:35.601Z,567.4
2023-01-02T12:24:37.824Z,566.9
2023-01-02T12:25:40.081Z,566.7
2023-01-02T12:26:42.302Z,566.6
2023-01-02T12:27:44.959Z,566.4
2023-01-02T12:28:47.208Z,566.5
2023-01-02T12:29:50.661Z,566.4
2023-01-02T12:30:52.885Z,566.3
2023-01-02T12:31:56.561Z,566.7
2023-01-02T12:33:00.415Z,567
2023-01-02T12:34:02.923Z,566.9
2023-01-02T12:35:05.339Z,567.4
2023-01-02T12:36:07.581Z,567.7
2023-01-02T12:37:10.105Z,567.7
2023-01-02T12:38:12.356Z,567.8
2023-01-02T12:39:14.343Z,567.3
2023-01-02T12:40:16.973Z,567.5
2023-01-02T12:41:19.539Z,567.6
2023-01-02T12:42:22.035Z,567.2
2023-01-02T12:43:24.661Z,567.1
2023-01-02T12:45:32.308Z,566.9
2023-01-02T12:46:34.871Z,566.9
2023-01-02T12:47:36.885Z,567
2023-01-02T12:48:38.840Z,567
2023-01-02T12:49:41.369Z,566.9
2023-01-02T12:51:48.898Z,566.5
2023-01-02T12:52:51.421Z,566.5
2023-01-02T12:54:58.911Z,566.1
2023-01-02T12:56:01.437Z,565.9
2023-01-02T12:57:03.710Z,565.9
2023-01-02T12:58:05.389Z,565.9
2023-01-02T12:59:08.205Z,566
2023-01-02T13:00:10.750Z,565.8
2023-01-02T13:01:13.710Z,565.8
2023-01-02T13:02:17.460Z,565.9
2023-01-02T13:04:24.722Z,565.7
2023-01-02T13:05:27.015Z,565.8
2023-01-02T13:07:33.963Z,565.6
2023-01-02T13:08:35.927Z,565.4
2023-01-02T13:09:38.193Z,565.7
2023-01-02T13:10:40.722Z,565.4
2023-01-02T13:11:43.261Z,565.5
2023-01-02T13:12:45.788Z,565.5
2023-01-02T13:13:48.309Z,565.7
2023-01-02T13:14:50.938Z,565.3
2023-01-02T13:15:53.477Z,565.5
2023-01-02T13:16:56.308Z,565.9
2023-01-02T13:17:58.598Z,565.7
2023-01-02T13:19:02.902Z,565.6
2023-01-02T13:20:05.143Z,565.7
2023-01-02T13:21:07.448Z,565
2023-01-02T13:22:10.050Z,564.8
2023-01-02T13:23:12.624Z,564.6
2023-01-02T13:24:15.180Z,564.9
2023-01-02T13:25:17.435Z,564.5
2023-01-02T13:26:19.946Z,564.3
2023-01-02T13:27:22.479Z,564.2
2023-01-02T13:28:26.711Z,563.6
2023-01-02T13:29:28.926Z,563.8
2023-01-02T13:30:31.944Z,563.6
2023-01-02T13:32:39.467Z,563.2
2023-01-02T13:33:41.761Z,563.2
2023-01-02T13:34:44.003Z,563.4
2023-01-02T13:35:46.242Z,563.3
2023-01-02T13:36:48.774Z,562.7
2023-01-02T13:37:50.728Z,562.8
2023-01-02T13:38:52.974Z,562.7
2023-01-02T13:39:55.512Z,562.3
2023-01-02T13:40:57.776Z,562
2023-01-02T13:43:04.977Z,561.6
2023-01-02T13:44:07.211Z,561.3
2023-01-02T13:45:09.168Z,561
2023-01-02T13:48:21.945Z,561
2023-01-02T13:49:24.388Z,560.9
2023-01-02T13:50:26.660Z,560.8
2023-01-02T13:51:29.206Z,560.4
2023-01-02T13:52:31.451Z,560.2
2023-01-02T13:53:33.686Z,559.8
2023-01-02T13:54:35.952Z,559.7
2023-01-02T13:55:38.317Z,560
2023-01-02T13:56:41.840Z,559.9
2023-01-02T13:57:44.364Z,560.4
2023-01-02T13:58:46.508Z,560.4
2023-01-02T13:59:49.719Z,560.1
2023-01-02T14:01:57.865Z,559.8
2023-01-02T14:03:01.488Z,560.1
2023-01-02T14:04:04.406Z,559.7
2023-01-02T14:05:06.403Z,559.4
2023-01-02T14:06:08.649Z,559.5